sensor_id;sensor_type;location;lat;lon;timestamp;P1;durP1;ratioP1;P2;durP2;ratioP2
37895;SDS011;23733;53.254;10.430;2023-04-01T00:00:59;5.83;;;2.63;;
37895;SDS011;23733;53.254;10.430;2023-04-01T00:03:29;5.07;;;2.40;;
37895;SDS011;23733;53.254;10.430;2023-04-01T00:05:56;7.40;;;2.37;;
37895;SDS011;23733;53.254;10.430;2023-04-01T00:08:23;4.33;;;2.03;;
37895;SDS011;23733;53.254;10.430;2023-04-01T00:10:50;5.43;;;2.27;;
37895;SDS011;23733;53.254;10.430;2023-04-01T00:13:22;3.63;;;1.83;;
37895;SDS011;23733;53.254;10.430;2023-04-01T00:15:53;5.43;;;2.30;;
37895;SDS011;23733;53.254;10.430;2023-04-01T00:18:20;4.63;;;2.03;;
37895;SDS011;23733;53.254;10.430;2023-04-01T00:20:48;5.63;;;1.90;;
37895;SDS011;23733;53.254;10.430;2023-04-01T00:23:16;4.47;;;2.20;;
37895;SDS011;23733;53.254;10.430;2023-04-01T00:25:42;4.97;;;2.30;;
37895;SDS011;23733;53.254;10.430;2023-04-01T00:28:08;6.63;;;2.20;;
37895;SDS011;23733;53.254;10.430;2023-04-01T00:30:35;4.77;;;2.10;;
37895;SDS011;23733;53.254;10.430;2023-04-01T00:33:02;4.80;;;1.97;;
37895;SDS011;23733;53.254;10.430;2023-04-01T00:35:29;3.43;;;1.90;;
37895;SDS011;23733;53.254;10.430;2023-04-01T00:37:55;5.57;;;2.17;;
37895;SDS011;23733;53.254;10.430;2023-04-01T00:40:34;6.50;;;2.60;;
37895;SDS011;23733;53.254;10.430;2023-04-01T00:43:10;5.60;;;2.43;;
37895;SDS011;23733;53.254;10.430;2023-04-01T00:45:39;5.87;;;2.60;;
37895;SDS011;23733;53.254;10.430;2023-04-01T00:48:19;6.60;;;2.50;;
37895;SDS011;23733;53.254;10.430;2023-04-01T00:50:52;4.13;;;2.57;;
37895;SDS011;23733;53.254;10.430;2023-04-01T00:53:30;6.67;;;2.37;;
37895;SDS011;23733;53.254;10.430;2023-04-01T00:56:02;5.00;;;2.40;;
37895;SDS011;23733;53.254;10.430;2023-04-01T00:58:38;5.00;;;2.73;;
37895;SDS011;23733;53.254;10.430;2023-04-01T01:01:09;5.03;;;2.30;;
37895;SDS011;23733;53.254;10.430;2023-04-01T01:03:36;4.17;;;2.30;;
37895;SDS011;23733;53.254;10.430;2023-04-01T01:06:20;4.93;;;2.10;;
37895;SDS011;23733;53.254;10.430;2023-04-01T01:09:11;6.07;;;2.43;;
37895;SDS011;23733;53.254;10.430;2023-04-01T01:12:00;4.73;;;2.17;;
37895;SDS011;23733;53.254;10.430;2023-04-01T01:23:18;5.73;;;1.90;;
37895;SDS011;23733;53.254;10.430;2023-04-01T01:26:19;5.70;;;2.23;;
37895;SDS011;23733;53.254;10.430;2023-04-01T01:34:32;3.63;;;1.90;;
37895;SDS011;23733;53.254;10.430;2023-04-01T01:37:14;3.67;;;2.00;;
37895;SDS011;23733;53.254;10.430;2023-04-01T01:39:44;4.37;;;1.80;;
37895;SDS011;23733;53.254;10.430;2023-04-01T01:42:15;5.87;;;2.03;;
37895;SDS011;23733;53.254;10.430;2023-04-01T01:44:44;3.67;;;1.90;;
37895;SDS011;23733;53.254;10.430;2023-04-01T01:47:12;4.33;;;2.00;;
37895;SDS011;23733;53.254;10.430;2023-04-01T01:49:40;7.90;;;2.20;;
37895;SDS011;23733;53.254;10.430;2023-04-01T01:52:08;4.77;;;2.20;;
37895;SDS011;23733;53.254;10.430;2023-04-01T01:54:35;6.90;;;2.10;;
37895;SDS011;23733;53.254;10.430;2023-04-01T01:57:04;4.97;;;1.90;;
37895;SDS011;23733;53.254;10.430;2023-04-01T01:59:34;6.20;;;2.20;;
37895;SDS011;23733;53.254;10.430;2023-04-01T02:02:02;4.10;;;1.80;;
37895;SDS011;23733;53.254;10.430;2023-04-01T02:04:34;4.40;;;2.10;;
37895;SDS011;23733;53.254;10.430;2023-04-01T02:07:05;3.97;;;1.90;;
37895;SDS011;23733;53.254;10.430;2023-04-01T02:09:36;5.53;;;2.00;;
37895;SDS011;23733;53.254;10.430;2023-04-01T02:12:07;7.20;;;2.20;;
37895;SDS011;23733;53.254;10.430;2023-04-01T02:17:19;4.47;;;2.00;;
37895;SDS011;23733;53.254;10.430;2023-04-01T02:19:48;5.63;;;2.07;;
37895;SDS011;23733;53.254;10.430;2023-04-01T02:22:19;8.50;;;2.37;;
37895;SDS011;23733;53.254;10.430;2023-04-01T02:24:49;6.63;;;1.80;;
37895;SDS011;23733;53.254;10.430;2023-04-01T02:27:19;6.17;;;2.10;;
37895;SDS011;23733;53.254;10.430;2023-04-01T02:29:45;3.83;;;1.70;;
37895;SDS011;23733;53.254;10.430;2023-04-01T02:32:12;6.77;;;2.13;;
37895;SDS011;23733;53.254;10.430;2023-04-01T02:34:39;4.83;;;1.83;;
37895;SDS011;23733;53.254;10.430;2023-04-01T02:37:07;5.53;;;1.87;;
37895;SDS011;23733;53.254;10.430;2023-04-01T02:39:33;9.53;;;2.80;;
37895;SDS011;23733;53.254;10.430;2023-04-01T02:41:59;5.20;;;2.00;;
37895;SDS011;23733;53.254;10.430;2023-04-01T02:44:26;7.90;;;2.30;;
37895;SDS011;23733;53.254;10.430;2023-04-01T02:46:52;4.43;;;2.13;;
37895;SDS011;23733;53.254;10.430;2023-04-01T02:49:18;3.90;;;2.13;;
37895;SDS011;23733;53.254;10.430;2023-04-01T02:51:44;3.60;;;1.90;;
37895;SDS011;23733;53.254;10.430;2023-04-01T02:54:10;6.37;;;2.50;;
37895;SDS011;23733;53.254;10.430;2023-04-01T02:56:36;5.10;;;2.70;;
37895;SDS011;23733;53.254;10.430;2023-04-01T02:59:02;4.90;;;2.10;;
37895;SDS011;23733;53.254;10.430;2023-04-01T03:01:31;5.43;;;2.13;;
37895;SDS011;23733;53.254;10.430;2023-04-01T03:03:57;7.20;;;2.50;;
37895;SDS011;23733;53.254;10.430;2023-04-01T03:06:23;4.80;;;2.33;;
37895;SDS011;23733;53.254;10.430;2023-04-01T03:08:52;5.60;;;2.50;;
37895;SDS011;23733;53.254;10.430;2023-04-01T03:11:18;5.50;;;2.13;;
37895;SDS011;23733;53.254;10.430;2023-04-01T03:13:45;6.33;;;2.60;;
37895;SDS011;23733;53.254;10.430;2023-04-01T03:16:11;5.97;;;2.33;;
37895;SDS011;23733;53.254;10.430;2023-04-01T03:18:37;3.57;;;2.20;;
37895;SDS011;23733;53.254;10.430;2023-04-01T03:21:16;6.57;;;2.30;;
37895;SDS011;23733;53.254;10.430;2023-04-01T03:23:43;5.37;;;2.33;;
37895;SDS011;23733;53.254;10.430;2023-04-01T03:26:12;6.63;;;2.20;;
37895;SDS011;23733;53.254;10.430;2023-04-01T03:28:42;4.40;;;2.27;;
37895;SDS011;23733;53.254;10.430;2023-04-01T03:31:08;4.23;;;2.10;;
37895;SDS011;23733;53.254;10.430;2023-04-01T03:33:34;4.37;;;1.70;;
37895;SDS011;23733;53.254;10.430;2023-04-01T03:36:00;2.90;;;1.93;;
37895;SDS011;23733;53.254;10.430;2023-04-01T03:38:31;5.03;;;2.17;;
37895;SDS011;23733;53.254;10.430;2023-04-01T03:41:03;3.90;;;1.83;;
37895;SDS011;23733;53.254;10.430;2023-04-01T03:43:29;4.70;;;1.77;;
37895;SDS011;23733;53.254;10.430;2023-04-01T03:45:55;4.37;;;1.90;;
37895;SDS011;23733;53.254;10.430;2023-04-01T03:48:23;3.07;;;1.93;;
37895;SDS011;23733;53.254;10.430;2023-04-01T03:50:52;4.50;;;2.00;;
37895;SDS011;23733;53.254;10.430;2023-04-01T03:53:18;6.30;;;2.50;;
37895;SDS011;23733;53.254;10.430;2023-04-01T03:55:44;3.70;;;2.03;;
37895;SDS011;23733;53.254;10.430;2023-04-01T03:58:10;5.27;;;2.20;;
37895;SDS011;23733;53.254;10.430;2023-04-01T04:00:45;6.77;;;2.30;;
37895;SDS011;23733;53.254;10.430;2023-04-01T04:03:14;4.53;;;2.33;;
37895;SDS011;23733;53.254;10.430;2023-04-01T04:05:47;6.10;;;2.43;;
37895;SDS011;23733;53.254;10.430;2023-04-01T04:08:15;7.30;;;2.73;;
37895;SDS011;23733;53.254;10.430;2023-04-01T04:10:46;7.07;;;2.70;;
37895;SDS011;23733;53.254;10.430;2023-04-01T04:13:13;5.13;;;2.70;;
37895;SDS011;23733;53.254;10.430;2023-04-01T04:15:39;4.17;;;2.10;;
37895;SDS011;23733;53.254;10.430;2023-04-01T04:18:05;4.73;;;2.33;;
37895;SDS011;23733;53.254;10.430;2023-04-01T04:20:31;4.43;;;2.23;;
37895;SDS011;23733;53.254;10.430;2023-04-01T04:22:57;4.60;;;2.40;;
37895;SDS011;23733;53.254;10.430;2023-04-01T04:25:23;6.87;;;2.70;;
37895;SDS011;23733;53.254;10.430;2023-04-01T04:27:49;4.07;;;2.20;;
37895;SDS011;23733;53.254;10.430;2023-04-01T04:30:15;5.97;;;2.60;;
37895;SDS011;23733;53.254;10.430;2023-04-01T04:32:44;6.50;;;2.30;;
37895;SDS011;23733;53.254;10.430;2023-04-01T04:35:10;4.47;;;2.27;;
37895;SDS011;23733;53.254;10.430;2023-04-01T04:37:41;6.50;;;2.77;;
37895;SDS011;23733;53.254;10.430;2023-04-01T04:40:13;6.13;;;2.77;;
37895;SDS011;23733;53.254;10.430;2023-04-01T04:42:39;5.03;;;2.40;;
37895;SDS011;23733;53.254;10.430;2023-04-01T04:45:06;4.97;;;2.70;;
37895;SDS011;23733;53.254;10.430;2023-04-01T04:47:32;3.57;;;2.40;;
37895;SDS011;23733;53.254;10.430;2023-04-01T04:49:58;5.47;;;2.70;;
37895;SDS011;23733;53.254;10.430;2023-04-01T04:52:24;7.67;;;2.50;;
37895;SDS011;23733;53.254;10.430;2023-04-01T04:54:50;5.93;;;2.10;;
37895;SDS011;23733;53.254;10.430;2023-04-01T04:57:16;5.50;;;2.70;;
37895;SDS011;23733;53.254;10.430;2023-04-01T04:59:42;4.07;;;2.20;;
37895;SDS011;23733;53.254;10.430;2023-04-01T05:02:08;6.23;;;2.80;;
37895;SDS011;23733;53.254;10.430;2023-04-01T05:04:37;8.97;;;2.67;;
37895;SDS011;23733;53.254;10.430;2023-04-01T05:07:03;8.33;;;2.70;;
37895;SDS011;23733;53.254;10.430;2023-04-01T05:09:29;8.80;;;2.93;;
37895;SDS011;23733;53.254;10.430;2023-04-01T05:11:55;6.83;;;2.57;;
37895;SDS011;23733;53.254;10.430;2023-04-01T05:14:21;6.27;;;2.63;;
37895;SDS011;23733;53.254;10.430;2023-04-01T05:16:47;7.30;;;2.53;;
37895;SDS011;23733;53.254;10.430;2023-04-01T05:19:13;6.30;;;3.10;;
37895;SDS011;23733;53.254;10.430;2023-04-01T05:21:39;8.93;;;2.43;;
37895;SDS011;23733;53.254;10.430;2023-04-01T05:24:07;8.73;;;3.23;;
37895;SDS011;23733;53.254;10.430;2023-04-01T05:26:34;7.63;;;3.43;;
37895;SDS011;23733;53.254;10.430;2023-04-01T05:29:02;10.00;;;3.60;;
37895;SDS011;23733;53.254;10.430;2023-04-01T05:31:29;6.43;;;3.23;;
37895;SDS011;23733;53.254;10.430;2023-04-01T05:33:55;6.87;;;3.20;;
37895;SDS011;23733;53.254;10.430;2023-04-01T05:36:25;6.90;;;3.20;;
37895;SDS011;23733;53.254;10.430;2023-04-01T05:38:51;5.47;;;3.40;;
37895;SDS011;23733;53.254;10.430;2023-04-01T05:41:20;8.13;;;3.57;;
37895;SDS011;23733;53.254;10.430;2023-04-01T05:43:46;9.20;;;3.80;;
37895;SDS011;23733;53.254;10.430;2023-04-01T05:46:15;7.23;;;3.20;;
37895;SDS011;23733;53.254;10.430;2023-04-01T05:48:52;11.33;;;3.43;;
37895;SDS011;23733;53.254;10.430;2023-04-01T05:51:18;9.63;;;3.23;;
37895;SDS011;23733;53.254;10.430;2023-04-01T05:53:44;9.77;;;3.60;;
37895;SDS011;23733;53.254;10.430;2023-04-01T05:56:10;8.97;;;3.17;;
37895;SDS011;23733;53.254;10.430;2023-04-01T05:58:37;7.27;;;2.87;;
37895;SDS011;23733;53.254;10.430;2023-04-01T06:01:04;6.57;;;3.03;;
37895;SDS011;23733;53.254;10.430;2023-04-01T06:03:32;5.93;;;2.83;;
37895;SDS011;23733;53.254;10.430;2023-04-01T06:06:01;4.40;;;3.00;;
37895;SDS011;23733;53.254;10.430;2023-04-01T06:08:31;5.93;;;3.00;;
37895;SDS011;23733;53.254;10.430;2023-04-01T06:11:06;8.33;;;3.40;;
37895;SDS011;23733;53.254;10.430;2023-04-01T06:19:50;9.70;;;3.70;;
37895;SDS011;23733;53.254;10.430;2023-04-01T06:25:34;10.10;;;3.50;;
37895;SDS011;23733;53.254;10.430;2023-04-01T06:28:06;8.83;;;3.80;;
37895;SDS011;23733;53.254;10.430;2023-04-01T06:31:03;9.80;;;4.40;;
37895;SDS011;23733;53.254;10.430;2023-04-01T06:33:58;6.27;;;3.67;;
37895;SDS011;23733;53.254;10.430;2023-04-01T06:40:00;7.33;;;3.40;;
37895;SDS011;23733;53.254;10.430;2023-04-01T06:42:39;5.93;;;3.27;;
37895;SDS011;23733;53.254;10.430;2023-04-01T06:45:28;2.37;;;1.67;;
37895;SDS011;23733;53.254;10.430;2023-04-01T06:48:19;2.47;;;1.80;;
37895;SDS011;23733;53.254;10.430;2023-04-01T06:51:16;1.43;;;1.23;;
37895;SDS011;23733;53.254;10.430;2023-04-01T06:56:42;1.37;;;1.27;;
37895;SDS011;23733;53.254;10.430;2023-04-01T06:59:16;5.43;;;1.60;;
37895;SDS011;23733;53.254;10.430;2023-04-01T07:01:49;2.23;;;1.40;;
37895;SDS011;23733;53.254;10.430;2023-04-01T07:04:30;1.50;;;1.17;;
37895;SDS011;23733;53.254;10.430;2023-04-01T07:07:04;4.00;;;1.20;;
37895;SDS011;23733;53.254;10.430;2023-04-01T07:09:41;2.07;;;1.30;;
37895;SDS011;23733;53.254;10.430;2023-04-01T07:12:23;1.37;;;1.00;;
37895;SDS011;23733;53.254;10.430;2023-04-01T07:15:01;2.80;;;1.30;;
37895;SDS011;23733;53.254;10.430;2023-04-01T07:17:40;1.20;;;1.10;;
37895;SDS011;23733;53.254;10.430;2023-04-01T07:20:13;2.03;;;1.00;;
37895;SDS011;23733;53.254;10.430;2023-04-01T07:23:27;1.50;;;1.00;;
37895;SDS011;23733;53.254;10.430;2023-04-01T07:26:03;1.90;;;1.17;;
37895;SDS011;23733;53.254;10.430;2023-04-01T07:28:44;1.10;;;1.00;;
37895;SDS011;23733;53.254;10.430;2023-04-01T07:34:25;1.00;;;0.80;;
37895;SDS011;23733;53.254;10.430;2023-04-01T07:37:13;0.60;;;0.60;;
37895;SDS011;23733;53.254;10.430;2023-04-01T07:45:17;1.00;;;0.90;;
37895;SDS011;23733;53.254;10.430;2023-04-01T07:48:18;0.70;;;0.70;;
37895;SDS011;23733;53.254;10.430;2023-04-01T07:53:38;1.30;;;0.90;;
37895;SDS011;23733;53.254;10.430;2023-04-01T08:05:41;0.77;;;0.70;;
37895;SDS011;23733;53.254;10.430;2023-04-01T08:08:32;0.80;;;0.80;;
37895;SDS011;23733;53.254;10.430;2023-04-01T08:11:22;1.20;;;0.80;;
37895;SDS011;23733;53.254;10.430;2023-04-01T08:14:01;0.90;;;0.80;;
37895;SDS011;23733;53.254;10.430;2023-04-01T08:16:59;0.93;;;0.87;;
37895;SDS011;23733;53.254;10.430;2023-04-01T08:22:38;0.73;;;0.73;;
37895;SDS011;23733;53.254;10.430;2023-04-01T08:25:25;1.23;;;0.90;;
37895;SDS011;23733;53.254;10.430;2023-04-01T08:28:04;0.90;;;0.80;;
37895;SDS011;23733;53.254;10.430;2023-04-01T08:30:54;1.00;;;0.90;;
37895;SDS011;23733;53.254;10.430;2023-04-01T08:33:29;1.00;;;0.90;;
37895;SDS011;23733;53.254;10.430;2023-04-01T08:35:59;0.80;;;0.80;;
37895;SDS011;23733;53.254;10.430;2023-04-01T08:38:29;0.80;;;0.80;;
37895;SDS011;23733;53.254;10.430;2023-04-01T08:41:00;1.27;;;0.90;;
37895;SDS011;23733;53.254;10.430;2023-04-01T08:46:19;0.70;;;0.70;;
37895;SDS011;23733;53.254;10.430;2023-04-01T08:49:13;0.80;;;0.80;;
37895;SDS011;23733;53.254;10.430;2023-04-01T08:54:37;1.03;;;0.60;;
37895;SDS011;23733;53.254;10.430;2023-04-01T08:57:13;1.27;;;0.90;;
37895;SDS011;23733;53.254;10.430;2023-04-01T09:02:13;1.17;;;0.60;;
37895;SDS011;23733;53.254;10.430;2023-04-01T09:07:32;0.80;;;0.70;;
37895;SDS011;23733;53.254;10.430;2023-04-01T09:12:54;0.70;;;0.70;;
37895;SDS011;23733;53.254;10.430;2023-04-01T09:15:46;3.37;;;0.83;;
37895;SDS011;23733;53.254;10.430;2023-04-01T09:23:35;0.70;;;0.70;;
37895;SDS011;23733;53.254;10.430;2023-04-01T09:26:34;1.77;;;1.00;;
37895;SDS011;23733;53.254;10.430;2023-04-01T09:32:35;1.30;;;1.00;;
37895;SDS011;23733;53.254;10.430;2023-04-01T09:35:46;1.30;;;1.00;;
37895;SDS011;23733;53.254;10.430;2023-04-01T09:38:56;1.00;;;0.90;;
37895;SDS011;23733;53.254;10.430;2023-04-01T09:52:46;1.07;;;0.97;;
37895;SDS011;23733;53.254;10.430;2023-04-01T09:58:34;1.20;;;0.90;;
37895;SDS011;23733;53.254;10.430;2023-04-01T10:01:31;1.73;;;0.97;;
37895;SDS011;23733;53.254;10.430;2023-04-01T10:10:09;0.90;;;0.90;;
37895;SDS011;23733;53.254;10.430;2023-04-01T10:20:46;0.87;;;0.83;;
37895;SDS011;23733;53.254;10.430;2023-04-01T10:23:45;1.80;;;1.00;;
37895;SDS011;23733;53.254;10.430;2023-04-01T10:26:28;2.53;;;1.23;;
37895;SDS011;23733;53.254;10.430;2023-04-01T10:37:56;1.37;;;1.10;;
37895;SDS011;23733;53.254;10.430;2023-04-01T10:43:33;1.30;;;0.90;;
37895;SDS011;23733;53.254;10.430;2023-04-01T11:04:14;1.10;;;0.80;;
37895;SDS011;23733;53.254;10.430;2023-04-01T11:07:22;1.47;;;0.80;;
37895;SDS011;23733;53.254;10.430;2023-04-01T11:10:06;1.07;;;0.83;;
37895;SDS011;23733;53.254;10.430;2023-04-01T11:15:48;1.10;;;0.80;;
37895;SDS011;23733;53.254;10.430;2023-04-01T11:24:40;1.43;;;0.90;;
37895;SDS011;23733;53.254;10.430;2023-04-01T11:33:42;1.53;;;0.83;;
37895;SDS011;23733;53.254;10.430;2023-04-01T11:36:22;2.13;;;0.60;;
37895;SDS011;23733;53.254;10.430;2023-04-01T11:39:00;0.87;;;0.77;;
37895;SDS011;23733;53.254;10.430;2023-04-01T11:41:49;0.87;;;0.80;;
37895;SDS011;23733;53.254;10.430;2023-04-01T11:44:43;0.70;;;0.70;;
37895;SDS011;23733;53.254;10.430;2023-04-01T11:47:58;1.13;;;0.90;;
37895;SDS011;23733;53.254;10.430;2023-04-01T11:54:04;1.13;;;0.97;;
37895;SDS011;23733;53.254;10.430;2023-04-01T12:02:11;1.30;;;0.90;;
37895;SDS011;23733;53.254;10.430;2023-04-01T12:04:46;2.67;;;1.00;;
37895;SDS011;23733;53.254;10.430;2023-04-01T12:10:01;1.60;;;0.93;;
37895;SDS011;23733;53.254;10.430;2023-04-01T12:12:36;1.07;;;0.90;;
37895;SDS011;23733;53.254;10.430;2023-04-01T12:29:38;1.40;;;1.30;;
37895;SDS011;23733;53.254;10.430;2023-04-01T12:35:08;1.60;;;1.37;;
37895;SDS011;23733;53.254;10.430;2023-04-01T12:48:50;3.00;;;1.70;;
37895;SDS011;23733;53.254;10.430;2023-04-01T12:54:39;2.27;;;1.80;;
37895;SDS011;23733;53.254;10.430;2023-04-01T13:26:18;2.90;;;2.00;;
37895;SDS011;23733;53.254;10.430;2023-04-01T13:31:51;3.07;;;2.00;;
37895;SDS011;23733;53.254;10.430;2023-04-01T13:44:10;3.97;;;2.10;;
37895;SDS011;23733;53.254;10.430;2023-04-01T13:49:34;2.77;;;2.00;;
37895;SDS011;23733;53.254;10.430;2023-04-01T13:52:07;7.27;;;2.23;;
37895;SDS011;23733;53.254;10.430;2023-04-01T13:54:55;3.93;;;1.97;;
37895;SDS011;23733;53.254;10.430;2023-04-01T13:57:43;3.27;;;2.07;;
37895;SDS011;23733;53.254;10.430;2023-04-01T14:03:50;2.93;;;2.00;;
37895;SDS011;23733;53.254;10.430;2023-04-01T14:15:28;3.23;;;2.10;;
37895;SDS011;23733;53.254;10.430;2023-04-01T14:18:37;6.33;;;2.37;;
37895;SDS011;23733;53.254;10.430;2023-04-01T14:21:45;3.53;;;2.00;;
37895;SDS011;23733;53.254;10.430;2023-04-01T14:24:31;3.53;;;2.40;;
37895;SDS011;23733;53.254;10.430;2023-04-01T14:33:15;3.93;;;2.37;;
37895;SDS011;23733;53.254;10.430;2023-04-01T14:50:03;3.00;;;2.13;;
37895;SDS011;23733;53.254;10.430;2023-04-01T14:55:34;3.63;;;2.10;;
37895;SDS011;23733;53.254;10.430;2023-04-01T14:58:15;4.13;;;2.40;;
37895;SDS011;23733;53.254;10.430;2023-04-01T15:00:50;2.50;;;2.00;;
37895;SDS011;23733;53.254;10.430;2023-04-01T15:03:22;3.90;;;2.40;;
37895;SDS011;23733;53.254;10.430;2023-04-01T15:05:52;4.87;;;2.30;;
37895;SDS011;23733;53.254;10.430;2023-04-01T15:11:26;5.03;;;2.70;;
37895;SDS011;23733;53.254;10.430;2023-04-01T15:14:18;3.57;;;2.50;;
37895;SDS011;23733;53.254;10.430;2023-04-01T15:28:00;4.33;;;2.60;;
37895;SDS011;23733;53.254;10.430;2023-04-01T15:30:28;5.23;;;2.60;;
37895;SDS011;23733;53.254;10.430;2023-04-01T15:35:50;5.03;;;2.87;;
37895;SDS011;23733;53.254;10.430;2023-04-01T15:41:12;5.77;;;2.80;;
37895;SDS011;23733;53.254;10.430;2023-04-01T15:43:44;7.07;;;2.60;;
37895;SDS011;23733;53.254;10.430;2023-04-01T15:46:26;4.50;;;2.77;;
37895;SDS011;23733;53.254;10.430;2023-04-01T15:49:11;5.93;;;3.10;;
37895;SDS011;23733;53.254;10.430;2023-04-01T15:57:20;7.47;;;3.33;;
37895;SDS011;23733;53.254;10.430;2023-04-01T16:00:00;6.03;;;3.30;;
37895;SDS011;23733;53.254;10.430;2023-04-01T16:04:59;6.17;;;2.90;;
37895;SDS011;23733;53.254;10.430;2023-04-01T16:10:19;7.33;;;3.80;;
37895;SDS011;23733;53.254;10.430;2023-04-01T16:12:53;7.30;;;3.87;;
37895;SDS011;23733;53.254;10.430;2023-04-01T16:15:28;6.90;;;3.63;;
37895;SDS011;23733;53.254;10.430;2023-04-01T16:18:10;8.50;;;3.40;;
37895;SDS011;23733;53.254;10.430;2023-04-01T16:23:36;7.80;;;3.77;;
37895;SDS011;23733;53.254;10.430;2023-04-01T16:26:20;10.20;;;3.80;;
37895;SDS011;23733;53.254;10.430;2023-04-01T16:28:56;6.30;;;3.57;;
37895;SDS011;23733;53.254;10.430;2023-04-01T16:31:35;7.20;;;4.07;;
37895;SDS011;23733;53.254;10.430;2023-04-01T16:36:45;6.43;;;4.30;;
37895;SDS011;23733;53.254;10.430;2023-04-01T16:41:49;7.47;;;3.93;;
37895;SDS011;23733;53.254;10.430;2023-04-01T16:44:25;7.40;;;3.87;;
37895;SDS011;23733;53.254;10.430;2023-04-01T16:46:58;8.13;;;4.30;;
37895;SDS011;23733;53.254;10.430;2023-04-01T16:49:32;9.97;;;3.83;;
37895;SDS011;23733;53.254;10.430;2023-04-01T16:52:12;7.97;;;3.80;;
37895;SDS011;23733;53.254;10.430;2023-04-01T16:54:41;11.47;;;4.40;;
37895;SDS011;23733;53.254;10.430;2023-04-01T16:57:36;5.70;;;3.60;;
37895;SDS011;23733;53.254;10.430;2023-04-01T17:03:02;5.17;;;3.10;;
37895;SDS011;23733;53.254;10.430;2023-04-01T17:05:49;5.40;;;3.27;;
37895;SDS011;23733;53.254;10.430;2023-04-01T17:13:40;7.23;;;4.07;;
37895;SDS011;23733;53.254;10.430;2023-04-01T17:25:11;7.10;;;3.83;;
37895;SDS011;23733;53.254;10.430;2023-04-01T17:27:57;10.63;;;3.93;;
37895;SDS011;23733;53.254;10.430;2023-04-01T17:30:39;6.50;;;3.83;;
37895;SDS011;23733;53.254;10.430;2023-04-01T17:39:11;9.97;;;4.10;;
37895;SDS011;23733;53.254;10.430;2023-04-01T17:42:06;8.40;;;3.70;;
37895;SDS011;23733;53.254;10.430;2023-04-01T17:44:47;7.93;;;3.77;;
37895;SDS011;23733;53.254;10.430;2023-04-01T17:47:23;9.90;;;3.83;;
37895;SDS011;23733;53.254;10.430;2023-04-01T17:50:04;6.90;;;3.47;;
37895;SDS011;23733;53.254;10.430;2023-04-01T17:52:57;7.37;;;3.80;;
37895;SDS011;23733;53.254;10.430;2023-04-01T17:58:28;7.00;;;4.03;;
37895;SDS011;23733;53.254;10.430;2023-04-01T18:01:09;8.27;;;3.90;;
37895;SDS011;23733;53.254;10.430;2023-04-01T18:03:50;8.40;;;3.83;;
37895;SDS011;23733;53.254;10.430;2023-04-01T18:20:52;10.67;;;4.47;;
37895;SDS011;23733;53.254;10.430;2023-04-01T18:23:43;9.03;;;4.70;;
37895;SDS011;23733;53.254;10.430;2023-04-01T18:26:21;8.90;;;4.63;;
37895;SDS011;23733;53.254;10.430;2023-04-01T18:29:13;7.13;;;4.20;;
37895;SDS011;23733;53.254;10.430;2023-04-01T18:35:03;8.43;;;5.20;;
37895;SDS011;23733;53.254;10.430;2023-04-01T18:46:05;9.43;;;4.30;;
37895;SDS011;23733;53.254;10.430;2023-04-01T18:48:46;8.57;;;4.20;;
37895;SDS011;23733;53.254;10.430;2023-04-01T18:51:39;7.57;;;3.87;;
37895;SDS011;23733;53.254;10.430;2023-04-01T18:56:49;8.23;;;4.43;;
37895;SDS011;23733;53.254;10.430;2023-04-01T18:59:30;7.10;;;3.50;;
37895;SDS011;23733;53.254;10.430;2023-04-01T19:02:25;5.57;;;3.47;;
37895;SDS011;23733;53.254;10.430;2023-04-01T19:10:25;10.63;;;3.63;;
37895;SDS011;23733;53.254;10.430;2023-04-01T19:15:57;5.53;;;3.23;;
37895;SDS011;23733;53.254;10.430;2023-04-01T19:18:41;7.33;;;3.57;;
37895;SDS011;23733;53.254;10.430;2023-04-01T19:21:39;9.70;;;3.53;;
37895;SDS011;23733;53.254;10.430;2023-04-01T19:27:11;7.00;;;3.27;;
37895;SDS011;23733;53.254;10.430;2023-04-01T19:35:09;5.97;;;3.07;;
37895;SDS011;23733;53.254;10.430;2023-04-01T19:40:42;5.27;;;2.80;;
37895;SDS011;23733;53.254;10.430;2023-04-01T19:44:21;6.90;;;3.40;;
37895;SDS011;23733;53.254;10.430;2023-04-01T19:52:04;4.63;;;2.77;;
37895;SDS011;23733;53.254;10.430;2023-04-01T19:54:56;7.43;;;2.70;;
37895;SDS011;23733;53.254;10.430;2023-04-01T19:57:46;4.07;;;2.70;;
37895;SDS011;23733;53.254;10.430;2023-04-01T20:00:31;4.37;;;2.57;;
37895;SDS011;23733;53.254;10.430;2023-04-01T20:03:15;11.57;;;3.13;;
37895;SDS011;23733;53.254;10.430;2023-04-01T20:06:04;5.90;;;2.97;;
37895;SDS011;23733;53.254;10.430;2023-04-01T20:11:38;4.57;;;2.67;;
37895;SDS011;23733;53.254;10.430;2023-04-01T20:14:35;6.93;;;2.77;;
37895;SDS011;23733;53.254;10.430;2023-04-01T20:17:24;7.27;;;2.87;;
37895;SDS011;23733;53.254;10.430;2023-04-01T20:22:51;6.57;;;2.40;;
37895;SDS011;23733;53.254;10.430;2023-04-01T20:25:25;6.17;;;2.17;;
37895;SDS011;23733;53.254;10.430;2023-04-01T20:38:48;4.90;;;2.60;;
37895;SDS011;23733;53.254;10.430;2023-04-01T20:41:26;7.07;;;2.50;;
37895;SDS011;23733;53.254;10.430;2023-04-01T20:44:14;5.10;;;2.30;;
37895;SDS011;23733;53.254;10.430;2023-04-01T20:47:10;6.63;;;2.30;;
37895;SDS011;23733;53.254;10.430;2023-04-01T20:52:56;5.00;;;2.00;;
37895;SDS011;23733;53.254;10.430;2023-04-01T20:58:26;5.67;;;2.47;;
37895;SDS011;23733;53.254;10.430;2023-04-01T21:01:19;5.43;;;2.10;;
37895;SDS011;23733;53.254;10.430;2023-04-01T21:04:07;4.50;;;2.23;;
37895;SDS011;23733;53.254;10.430;2023-04-01T21:06:53;6.27;;;2.50;;
37895;SDS011;23733;53.254;10.430;2023-04-01T21:12:30;4.37;;;2.37;;
37895;SDS011;23733;53.254;10.430;2023-04-01T21:17:51;6.27;;;2.40;;
37895;SDS011;23733;53.254;10.430;2023-04-01T21:23:41;5.73;;;2.20;;
37895;SDS011;23733;53.254;10.430;2023-04-01T21:26:20;6.97;;;2.10;;
37895;SDS011;23733;53.254;10.430;2023-04-01T21:32:11;2.70;;;1.40;;
37895;SDS011;23733;53.254;10.430;2023-04-01T21:34:48;6.80;;;1.90;;
37895;SDS011;23733;53.254;10.430;2023-04-01T21:37:41;5.10;;;1.50;;
37895;SDS011;23733;53.254;10.430;2023-04-01T21:40:32;9.40;;;1.97;;
37895;SDS011;23733;53.254;10.430;2023-04-01T21:51:56;5.57;;;1.73;;
37895;SDS011;23733;53.254;10.430;2023-04-01T21:54:44;8.20;;;2.60;;
37895;SDS011;23733;53.254;10.430;2023-04-01T21:57:18;5.70;;;1.57;;
37895;SDS011;23733;53.254;10.430;2023-04-01T22:00:09;5.10;;;1.20;;
37895;SDS011;23733;53.254;10.430;2023-04-01T22:05:19;4.80;;;1.50;;
37895;SDS011;23733;53.254;10.430;2023-04-01T22:10:48;5.20;;;1.83;;
37895;SDS011;23733;53.254;10.430;2023-04-01T22:13:46;6.30;;;1.60;;
37895;SDS011;23733;53.254;10.430;2023-04-01T22:19:36;5.57;;;1.57;;
37895;SDS011;23733;53.254;10.430;2023-04-01T22:22:29;4.97;;;1.43;;
37895;SDS011;23733;53.254;10.430;2023-04-01T22:25:11;6.27;;;1.70;;
37895;SDS011;23733;53.254;10.430;2023-04-01T22:27:50;3.00;;;1.33;;
37895;SDS011;23733;53.254;10.430;2023-04-01T22:30:29;2.80;;;1.30;;
37895;SDS011;23733;53.254;10.430;2023-04-01T22:38:47;6.20;;;1.40;;
37895;SDS011;23733;53.254;10.430;2023-04-01T22:47:28;8.20;;;1.57;;
37895;SDS011;23733;53.254;10.430;2023-04-01T22:50:02;5.93;;;1.20;;
37895;SDS011;23733;53.254;10.430;2023-04-01T22:52:33;4.77;;;1.50;;
37895;SDS011;23733;53.254;10.430;2023-04-01T22:55:09;7.27;;;1.57;;
37895;SDS011;23733;53.254;10.430;2023-04-01T22:57:43;3.17;;;1.37;;
37895;SDS011;23733;53.254;10.430;2023-04-01T23:02:42;2.77;;;1.20;;
37895;SDS011;23733;53.254;10.430;2023-04-01T23:05:17;6.13;;;1.53;;
37895;SDS011;23733;53.254;10.430;2023-04-01T23:07:56;3.90;;;1.40;;